Avon, Pennsylvania
Current Conditions -  °F | °C
As of 7:58 AM on Sunday 21 Dec 2014 (Local Time) from KMUI Reporting Station
Overcast Overcast  
Wind Chill: -2°   Ceiling: 2800
Heat Index: -2°   Visibility: 10mi
Dew Point: -5°   Wind: 3mph
Humidity: 76%   Direction: 280°W
Pressure: 30.32"   Gusts: NA
Location:  40.2957°N, 76.4189°W
Report Text: KMUI 211258Z AUTO 28003KT 10SM OVC028 M01/M05 A3032 RMK AO2 SLP277 T10151053
Loading
Personal Weather Stations






























Interactive Weather Map New forecast layout! Learn more

10-Day Weather Forecast

Advertisements
Track Severe Weather on mobile